createdAt,value
2022-09-01T00:01:49.328Z,15.60
2022-09-01T00:04:20.507Z,17.07
2022-09-01T00:06:48.440Z,12.97
2022-09-01T00:09:17.839Z,11.70
2022-09-01T00:11:50.765Z,12.10
2022-09-01T00:14:30.145Z,12.97
2022-09-01T00:17:03.819Z,12.27
2022-09-01T00:19:30.905Z,13.90
2022-09-01T00:21:57.694Z,17.67
2022-09-01T00:24:26.344Z,15.47
2022-09-01T00:26:54.356Z,12.80
2022-09-01T00:29:22.126Z,20.20
2022-09-01T00:31:49.051Z,13.40
2022-09-01T00:34:16.824Z,11.97
2022-09-01T00:36:43.930Z,11.87
2022-09-01T00:39:10.802Z,13.63
2022-09-01T00:41:40.091Z,13.03
2022-09-01T00:44:12.030Z,13.63
2022-09-01T00:46:47.763Z,9.67
2022-09-01T00:49:22.430Z,14.10
2022-09-01T00:51:54.553Z,12.40
2022-09-01T00:54:27.712Z,10.73
2022-09-01T00:56:57.786Z,9.80
2022-09-01T00:59:26.521Z,10.70
2022-09-01T01:01:54.716Z,14.73
2022-09-01T01:04:21.850Z,11.93
2022-09-01T01:06:58.824Z,15.23
2022-09-01T01:09:27.204Z,10.83
2022-09-01T01:11:54.937Z,15.93
2022-09-01T01:14:21.991Z,16.87
2022-09-01T01:16:52.091Z,10.87
2022-09-01T01:19:46.299Z,12.27
2022-09-01T01:22:55.737Z,15.37
2022-09-01T01:25:22.536Z,16.13
2022-09-01T01:27:50.387Z,18.27
2022-09-01T01:30:19.293Z,13.70
2022-09-01T01:32:47.822Z,10.43
2022-09-01T01:35:16.993Z,12.97
2022-09-01T01:37:48.987Z,17.33
2022-09-01T01:40:19.133Z,17.90
2022-09-01T01:42:49.154Z,13.37
2022-09-01T01:45:19.541Z,18.70
2022-09-01T01:47:53.236Z,13.00
2022-09-01T01:50:22.284Z,12.27
2022-09-01T01:52:49.050Z,16.83
2022-09-01T01:55:24.012Z,12.33
2022-09-01T01:57:50.721Z,14.90
2022-09-01T02:00:30.053Z,14.50
2022-09-01T02:02:57.348Z,16.57
2022-09-01T02:05:27.934Z,14.60
2022-09-01T02:08:00.071Z,13.07
2022-09-01T02:10:31.046Z,13.83
2022-09-01T02:13:04.388Z,12.57
2022-09-01T02:15:35.176Z,9.83
2022-09-01T02:18:15.214Z,18.37
2022-09-01T02:20:42.827Z,17.33
2022-09-01T02:23:10.838Z,12.97
2022-09-01T02:25:58.944Z,14.00
2022-09-01T02:28:32.995Z,14.53
2022-09-01T02:30:59.904Z,22.03
2022-09-01T02:33:28.466Z,15.67
2022-09-01T02:35:59.083Z,14.10
2022-09-01T02:38:29.232Z,13.57
2022-09-01T02:40:58.520Z,17.43
2022-09-01T02:43:28.421Z,17.77
2022-09-01T02:45:59.659Z,17.43
2022-09-01T02:48:33.020Z,17.50
2022-09-01T02:51:14.205Z,18.00
2022-09-01T02:53:42.819Z,16.20
2022-09-01T02:56:15.431Z,19.63
2022-09-01T02:58:46.643Z,17.57
2022-09-01T03:01:26.424Z,15.90
2022-09-01T03:03:55.927Z,18.03
2022-09-01T03:06:24.424Z,16.90
2022-09-01T03:08:54.625Z,14.10
2022-09-01T03:11:23.841Z,15.03
2022-09-01T03:13:50.933Z,20.03
2022-09-01T03:16:17.614Z,13.90
2022-09-01T03:18:44.694Z,16.00
2022-09-01T03:21:16.135Z,14.33
2022-09-01T03:23:45.423Z,13.77
2022-09-01T03:26:12.663Z,15.30
2022-09-01T03:28:39.411Z,15.77
2022-09-01T03:31:07.425Z,13.03
2022-09-01T03:33:34.515Z,16.60
2022-09-01T03:36:01.607Z,14.03
2022-09-01T03:38:28.737Z,15.53
2022-09-01T03:41:02.254Z,14.07
2022-09-01T03:43:35.594Z,16.07
2022-09-01T03:46:03.605Z,15.33
2022-09-01T03:48:32.153Z,15.37
2022-09-01T03:51:03.292Z,17.67
2022-09-01T03:53:33.771Z,14.97
2022-09-01T03:56:01.606Z,17.90
2022-09-01T03:58:28.700Z,16.97
2022-09-01T04:00:58.496Z,13.77
2022-09-01T04:03:31.132Z,14.20
2022-09-01T04:06:00.706Z,16.37
2022-09-01T04:08:32.498Z,13.90
2022-09-01T04:11:10.509Z,16.27
2022-09-01T04:13:39.834Z,12.97
2022-09-01T04:16:30.678Z,13.83
2022-09-01T04:18:57.460Z,13.43
2022-09-01T04:21:24.080Z,13.40
2022-09-01T04:23:50.703Z,17.27
2022-09-01T04:26:20.514Z,11.67
2022-09-01T04:28:50.932Z,16.17
2022-09-01T04:31:20.468Z,12.63
2022-09-01T04:33:50.122Z,14.33
2022-09-01T04:36:34.074Z,12.30
2022-09-01T04:39:02.367Z,13.07
2022-09-01T04:41:32.097Z,15.20
2022-09-01T04:44:02.488Z,14.73
2022-09-01T04:46:31.526Z,14.37
2022-09-01T04:48:58.314Z,12.90
2022-09-01T04:51:28.047Z,14.40
2022-09-01T04:53:57.963Z,12.00
2022-09-01T04:56:26.915Z,15.13
2022-09-01T04:58:57.116Z,11.57
2022-09-01T05:01:26.557Z,15.23
2022-09-01T05:04:03.885Z,15.73
2022-09-01T05:06:33.997Z,13.93
2022-09-01T05:09:00.779Z,12.87
2022-09-01T05:11:27.878Z,17.87
2022-09-01T05:13:57.767Z,17.57
2022-09-01T05:16:25.927Z,16.50
2022-09-01T05:18:54.291Z,25.57
2022-09-01T05:21:24.820Z,16.63
2022-09-01T05:23:52.870Z,17.40
2022-09-01T05:26:23.911Z,20.40
2022-09-01T05:28:56.635Z,17.73
2022-09-01T05:31:25.878Z,19.30
2022-09-01T05:33:52.527Z,21.83
2022-09-01T05:36:21.860Z,21.80
2022-09-01T05:38:49.763Z,19.10
2022-09-01T05:41:18.115Z,20.23
2022-09-01T05:43:48.276Z,19.00
2022-09-01T05:46:20.702Z,17.93
2022-09-01T05:48:49.641Z,22.07
2022-09-01T05:51:44.492Z,21.10
2022-09-01T05:54:14.084Z,20.73
2022-09-01T05:56:44.008Z,23.60
2022-09-01T05:59:28.333Z,19.57
2022-09-01T06:01:56.139Z,22.77
2022-09-01T06:04:25.718Z,23.03
2022-09-01T06:07:05.931Z,24.37
2022-09-01T06:09:38.353Z,23.50
2022-09-01T06:12:06.898Z,29.57
2022-09-01T06:14:34.970Z,18.63
2022-09-01T06:17:03.321Z,24.07
2022-09-01T06:19:34.773Z,23.60
2022-09-01T06:22:04.149Z,20.20
2022-09-01T06:24:30.836Z,18.47
2022-09-01T06:26:57.913Z,25.90
2022-09-01T06:29:24.664Z,25.17
2022-09-01T06:31:52.910Z,19.43
2022-09-01T06:34:20.550Z,27.77
2022-09-01T06:36:50.406Z,29.30
2022-09-01T06:39:20.416Z,24.87
2022-09-01T06:41:53.219Z,27.87
2022-09-01T06:44:24.770Z,20.90
2022-09-01T06:46:52.538Z,23.53
2022-09-01T06:49:21.688Z,24.47
2022-09-01T06:51:51.868Z,25.40
2022-09-01T06:54:21.085Z,22.77
2022-09-01T06:56:51.890Z,22.73
2022-09-01T06:59:21.915Z,26.83
2022-09-01T07:01:49.876Z,25.60
2022-09-01T07:04:20.258Z,26.57
2022-09-01T07:09:46.908Z,25.50
2022-09-01T07:12:25.996Z,26.37
2022-09-01T07:17:42.386Z,28.20
2022-09-01T07:20:27.239Z,24.80
2022-09-01T07:23:05.544Z,30.23
2022-09-01T07:25:48.295Z,26.40
2022-09-01T07:28:41.396Z,29.03
2022-09-01T07:39:51.416Z,25.03
2022-09-01T07:45:28.361Z,29.83
2022-09-01T07:47:56.543Z,28.77
2022-09-01T07:51:34.361Z,30.20
2022-09-01T07:53:12.739Z,29.00
2022-09-01T07:55:42.238Z,27.10
2022-09-01T07:58:11.941Z,29.97
2022-09-01T08:00:40.655Z,26.53
2022-09-01T08:03:07.455Z,32.47
2022-09-01T08:05:34.259Z,31.10
2022-09-01T08:08:01.697Z,27.37
2022-09-01T08:10:28.951Z,30.17
2022-09-01T08:12:57.037Z,27.93
2022-09-01T08:15:42.399Z,24.83
2022-09-01T08:18:14.296Z,32.93
2022-09-01T08:20:47.454Z,32.03
2022-09-01T08:23:18.521Z,36.47
2022-09-01T08:25:47.319Z,23.07
2022-09-01T08:28:15.518Z,28.83
2022-09-01T08:30:49.062Z,26.43
2022-09-01T08:33:19.662Z,27.77
2022-09-01T08:35:48.883Z,25.13
2022-09-01T08:38:16.043Z,24.40
2022-09-01T08:40:51.476Z,24.67
2022-09-01T08:43:54.757Z,27.67
2022-09-01T08:46:37.934Z,23.23
2022-09-01T08:49:24.673Z,26.10
2022-09-01T08:52:19.779Z,22.13
2022-09-01T08:55:15.035Z,21.60
2022-09-01T08:57:47.894Z,21.37
2022-09-01T09:00:20.363Z,20.67
2022-09-01T09:03:41.157Z,16.23
2022-09-01T09:06:36.650Z,21.67
2022-09-01T09:09:06.474Z,28.63
2022-09-01T09:11:58.996Z,17.23
2022-09-01T09:15:04.388Z,16.87
2022-09-01T09:17:37.134Z,19.33
2022-09-01T09:20:06.225Z,21.00
2022-09-01T09:22:33.726Z,23.10
2022-09-01T09:25:19.521Z,27.20
2022-09-01T09:27:49.413Z,20.90
2022-09-01T09:30:26.493Z,19.70
2022-09-01T09:35:50.900Z,17.13
2022-09-01T09:38:29.610Z,19.90
2022-09-01T09:43:56.031Z,14.93
2022-09-01T09:46:46.043Z,14.23
2022-09-01T09:49:34.896Z,17.03
2022-09-01T09:52:10.516Z,16.87
2022-09-01T09:54:40.471Z,18.53
2022-09-01T09:57:13.390Z,13.10
2022-09-01T10:00:04.850Z,17.80
2022-09-01T10:02:36.321Z,16.60
2022-09-01T10:05:24.772Z,26.43
2022-09-01T10:07:52.218Z,19.70
2022-09-01T10:10:28.119Z,19.17
2022-09-01T10:12:56.737Z,16.33
2022-09-01T10:15:26.946Z,17.17
2022-09-01T10:18:19.552Z,19.63
2022-09-01T10:20:53.259Z,19.53
2022-09-01T10:23:20.062Z,17.83
2022-09-01T10:25:50.750Z,16.27
2022-09-01T10:28:24.446Z,17.20
2022-09-01T10:30:53.994Z,15.63
2022-09-01T10:33:22.941Z,14.50
2022-09-01T10:35:53.286Z,16.70
2022-09-01T10:38:25.514Z,15.37
2022-09-01T10:41:08.719Z,20.10
2022-09-01T10:43:38.444Z,17.23
2022-09-01T10:46:24.777Z,23.13
2022-09-01T10:48:55.954Z,17.70
2022-09-01T10:51:29.705Z,17.90
2022-09-01T10:54:04.052Z,15.43
2022-09-01T10:56:44.318Z,16.43
2022-09-01T10:59:35.739Z,20.27
2022-09-01T11:05:12.120Z,17.23
2022-09-01T11:10:44.769Z,17.60
2022-09-01T11:13:34.634Z,11.70
2022-09-01T11:19:21.746Z,12.03
2022-09-01T11:22:02.723Z,14.93
2022-09-01T11:24:38.510Z,12.67
2022-09-01T11:27:09.485Z,10.37
2022-09-01T11:29:55.964Z,14.10
2022-09-01T11:32:28.106Z,11.40
2022-09-01T11:34:57.319Z,9.93
2022-09-01T11:37:27.578Z,10.33
2022-09-01T11:40:05.035Z,13.80
2022-09-01T11:42:45.906Z,12.83
2022-09-01T11:45:32.036Z,26.27
2022-09-01T11:48:03.596Z,13.93
2022-09-01T11:50:34.153Z,38.70
2022-09-01T11:53:21.827Z,79.43
2022-09-01T11:55:51.837Z,28.43
2022-09-01T11:58:27.869Z,12.77
2022-09-01T12:01:12.413Z,9.03
2022-09-01T12:03:39.299Z,9.73
2022-09-01T12:06:09.515Z,12.27
2022-09-01T12:08:42.860Z,10.90
2022-09-01T12:11:20.663Z,11.73
2022-09-01T12:14:11.112Z,10.57
2022-09-01T12:16:42.696Z,8.70
2022-09-01T12:19:24.082Z,10.73
2022-09-01T12:22:13.800Z,9.03
2022-09-01T12:24:46.038Z,10.73
2022-09-01T12:27:13.317Z,14.93
2022-09-01T12:29:40.495Z,10.37
2022-09-01T12:32:08.464Z,18.13
2022-09-01T12:34:44.726Z,14.60
2022-09-01T12:37:24.830Z,11.07
2022-09-01T12:39:54.976Z,10.80
2022-09-01T12:42:21.531Z,10.57
2022-09-01T12:45:09.017Z,15.67
2022-09-01T12:47:48.008Z,12.40
2022-09-01T12:50:16.521Z,17.23
2022-09-01T12:52:52.469Z,12.67
2022-09-01T12:58:12.709Z,12.47
2022-09-01T13:01:07.070Z,11.03
2022-09-01T13:03:42.851Z,12.20
2022-09-01T13:06:10.150Z,14.90
2022-09-01T13:08:37.646Z,10.97
2022-09-01T13:11:04.508Z,12.30
2022-09-01T13:13:32.020Z,12.43
2022-09-01T13:16:02.602Z,10.17
2022-09-01T13:18:30.400Z,15.03
2022-09-01T13:20:57.857Z,13.23
2022-09-01T13:23:24.657Z,15.07
2022-09-01T13:25:51.681Z,10.87
2022-09-01T13:28:19.039Z,10.17
2022-09-01T13:31:28.441Z,17.00
2022-09-01T13:36:43.769Z,16.00
2022-09-01T13:39:12.646Z,14.83
2022-09-01T13:41:39.602Z,10.87
2022-09-01T13:44:06.337Z,15.00
2022-09-01T13:46:59.071Z,14.93
2022-09-01T13:52:09.782Z,14.80
2022-09-01T13:54:36.509Z,12.00
2022-09-01T13:57:03.238Z,13.40
2022-09-01T13:59:30.396Z,13.43
2022-09-01T14:01:57.136Z,13.53
2022-09-01T14:04:23.859Z,14.67
2022-09-01T14:06:50.567Z,12.00
2022-09-01T14:09:18.178Z,10.33
2022-09-01T14:11:45.296Z,10.77
2022-09-01T14:14:12.010Z,9.90
2022-09-01T14:16:38.707Z,11.17
2022-09-01T14:19:05.832Z,11.63
2022-09-01T14:21:32.481Z,10.70
2022-09-01T14:24:00.281Z,11.70
2022-09-01T14:26:28.116Z,15.63
2022-09-01T14:28:55.101Z,11.90
2022-09-01T14:31:22.662Z,13.17
2022-09-01T14:33:49.773Z,14.40
2022-09-01T14:36:20.291Z,10.77
2022-09-01T14:38:47.174Z,10.53
2022-09-01T14:41:15.303Z,14.87
2022-09-01T14:43:43.155Z,13.73
2022-09-01T14:46:11.610Z,11.27
2022-09-01T14:48:39.970Z,12.73
2022-09-01T14:51:08.475Z,9.50
2022-09-01T14:53:36.267Z,11.10
2022-09-01T14:56:03.502Z,10.03
2022-09-01T14:58:30.627Z,10.73
2022-09-01T15:01:11.984Z,10.70
2022-09-01T15:03:46.083Z,10.07
2022-09-01T15:06:14.657Z,8.83
2022-09-01T15:08:42.137Z,9.67
2022-09-01T15:11:15.856Z,10.57
2022-09-01T15:13:44.098Z,10.00
2022-09-01T15:16:20.453Z,10.73
2022-09-01T15:18:47.530Z,10.93
2022-09-01T15:21:30.798Z,10.57
2022-09-01T15:23:57.821Z,15.27
2022-09-01T15:26:24.549Z,10.43
2022-09-01T15:28:51.415Z,12.43
2022-09-01T15:31:19.585Z,13.07
2022-09-01T15:34:01.052Z,14.17
2022-09-01T15:36:29.058Z,11.17
2022-09-01T15:38:57.121Z,11.40
2022-09-01T15:41:33.155Z,14.17
2022-09-01T15:44:01.980Z,9.83
2022-09-01T15:46:32.724Z,10.43
2022-09-01T15:49:01.072Z,12.30
2022-09-01T15:51:31.054Z,12.97
2022-09-01T15:54:06.996Z,13.37
2022-09-01T15:56:33.872Z,9.70
2022-09-01T15:59:02.189Z,14.40
2022-09-01T16:01:32.942Z,13.30
2022-09-01T16:04:00.318Z,14.17
2022-09-01T16:06:27.056Z,21.97
2022-09-01T16:08:54.835Z,21.13
2022-09-01T16:11:27.585Z,27.73
2022-09-01T16:13:54.785Z,16.47
2022-09-01T16:16:31.850Z,16.30
2022-09-01T16:19:07.622Z,15.60
2022-09-01T16:22:01.777Z,14.07
2022-09-01T16:24:28.441Z,13.97
2022-09-01T16:26:57.053Z,14.07
2022-09-01T16:29:45.197Z,10.10
2022-09-01T16:32:13.227Z,11.97
2022-09-01T16:34:46.871Z,10.07
2022-09-01T16:37:39.724Z,12.30
2022-09-01T16:40:33.037Z,12.43
2022-09-01T16:43:05.529Z,9.10
2022-09-01T16:45:46.698Z,13.77
2022-09-01T16:48:32.391Z,10.30
2022-09-01T16:51:13.769Z,16.23
2022-09-01T16:54:10.410Z,13.60
2022-09-01T16:56:57.325Z,14.53
2022-09-01T17:00:05.099Z,13.77
2022-09-01T17:02:38.637Z,12.83
2022-09-01T17:05:22.090Z,12.63
2022-09-01T17:08:08.563Z,13.90
2022-09-01T17:10:45.822Z,11.30
2022-09-01T17:13:44.922Z,14.83
2022-09-01T17:16:22.231Z,14.13
2022-09-01T17:18:58.349Z,13.40
2022-09-01T17:21:45.126Z,13.10
2022-09-01T17:24:22.874Z,14.57
2022-09-01T17:26:51.174Z,15.33
2022-09-01T17:29:24.780Z,14.20
2022-09-01T17:32:05.796Z,10.83
2022-09-01T17:35:11.276Z,11.47
2022-09-01T17:38:03.887Z,15.07
2022-09-01T17:40:46.067Z,14.17
2022-09-01T17:43:20.856Z,14.07
2022-09-01T17:45:57.297Z,11.80
2022-09-01T17:48:47.930Z,17.07
2022-09-01T17:51:49.216Z,17.90
2022-09-01T17:54:34.909Z,12.93
2022-09-01T17:57:36.187Z,13.47
2022-09-01T18:00:18.006Z,12.10
2022-09-01T18:03:06.212Z,18.63
2022-09-01T18:05:53.761Z,15.10
2022-09-01T18:08:42.384Z,15.20
2022-09-01T18:11:14.664Z,19.60
2022-09-01T18:13:59.829Z,13.27
2022-09-01T18:16:30.884Z,15.30
2022-09-01T18:19:03.804Z,13.77
2022-09-01T18:21:36.306Z,18.97
2022-09-01T18:24:15.994Z,15.40
2022-09-01T18:26:47.050Z,14.07
2022-09-01T18:29:13.762Z,18.77
2022-09-01T18:32:21.148Z,19.63
2022-09-01T18:35:08.347Z,14.93
2022-09-01T18:37:58.070Z,16.73
2022-09-01T18:41:04.579Z,14.83
2022-09-01T18:43:45.064Z,19.23
2022-09-01T18:46:23.151Z,24.53
2022-09-01T18:49:12.868Z,19.80
2022-09-01T18:51:48.483Z,18.03
2022-09-01T18:54:24.566Z,19.50
2022-09-01T18:57:00.294Z,13.97
2022-09-01T18:59:37.217Z,15.20
2022-09-01T19:02:22.768Z,20.93
2022-09-01T19:04:58.801Z,16.57
2022-09-01T19:07:39.325Z,17.13
2022-09-01T19:10:24.354Z,18.57
2022-09-01T19:13:00.718Z,16.83
2022-09-01T19:15:40.898Z,12.97
2022-09-01T19:18:32.866Z,12.03
2022-09-01T19:21:31.145Z,17.30
2022-09-01T19:24:10.724Z,10.33
2022-09-01T19:26:42.832Z,10.13
2022-09-01T19:29:17.774Z,11.33
2022-09-01T19:31:50.750Z,12.47
2022-09-01T19:34:25.531Z,12.13
2022-09-01T19:36:55.631Z,12.30
2022-09-01T19:39:26.788Z,10.23
2022-09-01T19:42:14.826Z,13.70
2022-09-01T19:45:13.706Z,9.77
2022-09-01T19:48:01.670Z,9.83
2022-09-01T19:50:41.926Z,9.73
2022-09-01T19:53:25.678Z,11.37
2022-09-01T19:55:58.500Z,9.63
2022-09-01T19:58:42.051Z,9.93
2022-09-01T20:01:14.416Z,12.93
2022-09-01T20:03:46.770Z,13.97
2022-09-01T20:06:36.400Z,16.80
2022-09-01T20:09:25.390Z,11.03
2022-09-01T20:12:30.368Z,16.53
2022-09-01T20:15:24.275Z,19.17
2022-09-01T20:18:00.213Z,11.23
2022-09-01T20:20:38.003Z,13.60
2022-09-01T20:23:14.881Z,14.77
2022-09-01T20:25:53.793Z,10.17
2022-09-01T20:28:41.939Z,17.30
2022-09-01T20:31:17.227Z,12.63
2022-09-01T20:33:50.737Z,12.57
2022-09-01T20:36:24.433Z,12.20
2022-09-01T20:39:19.178Z,9.60
2022-09-01T20:42:10.018Z,10.27
2022-09-01T20:44:52.840Z,14.07
2022-09-01T20:47:21.258Z,17.03
2022-09-01T20:49:48.712Z,10.80
2022-09-01T20:52:30.615Z,10.73
2022-09-01T20:55:29.646Z,18.00
2022-09-01T20:58:05.013Z,20.70
2022-09-01T21:00:41.645Z,12.13
2022-09-01T21:03:45.461Z,13.77
2022-09-01T21:06:23.109Z,11.30
2022-09-01T21:09:28.573Z,9.57
2022-09-01T21:11:59.169Z,12.47
2022-09-01T21:14:35.359Z,16.60
2022-09-01T21:17:17.486Z,11.77
2022-09-01T21:20:03.141Z,13.40
2022-09-01T21:22:30.127Z,12.10
2022-09-01T21:24:57.026Z,13.20
2022-09-01T21:27:28.842Z,12.60
2022-09-01T21:30:04.993Z,10.43
2022-09-01T21:32:33.783Z,14.03
2022-09-01T21:35:01.365Z,16.27
2022-09-01T21:37:29.134Z,13.90
2022-09-01T21:39:57.111Z,17.53
2022-09-01T21:42:40.217Z,10.90
2022-09-01T21:45:09.653Z,16.63
2022-09-01T21:47:36.728Z,12.30
2022-09-01T21:50:04.167Z,14.17
2022-09-01T21:52:30.805Z,10.63
2022-09-01T21:54:57.435Z,22.17
2022-09-01T21:57:24.215Z,11.87
2022-09-01T21:59:51.537Z,12.03
2022-09-01T22:02:20.168Z,15.13
2022-09-01T22:04:47.353Z,12.80
2022-09-01T22:07:15.341Z,15.63
2022-09-01T22:09:43.542Z,14.30
2022-09-01T22:12:10.854Z,15.03
2022-09-01T22:14:37.610Z,10.20
2022-09-01T22:17:04.649Z,17.33
2022-09-01T22:19:35.791Z,15.13
2022-09-01T22:22:03.256Z,12.37
2022-09-01T22:24:30.253Z,16.60
2022-09-01T22:26:57.091Z,12.90
2022-09-01T22:29:23.765Z,11.53
2022-09-01T22:31:50.480Z,13.47
2022-09-01T22:34:17.130Z,20.13
2022-09-01T22:36:46.958Z,11.33
2022-09-01T22:39:15.914Z,17.20
2022-09-01T22:41:42.760Z,12.93
2022-09-01T22:44:10.691Z,16.00
2022-09-01T22:46:40.635Z,12.90
2022-09-01T22:49:09.085Z,16.43
2022-09-01T22:51:38.614Z,12.07
2022-09-01T22:54:08.110Z,14.80
2022-09-01T22:56:38.054Z,13.37
2022-09-01T22:59:09.652Z,18.87
2022-09-01T23:01:39.712Z,14.97
2022-09-01T23:04:08.152Z,9.83
2022-09-01T23:06:38.631Z,14.63
2022-09-01T23:09:08.552Z,12.53
2022-09-01T23:11:35.278Z,15.43
2022-09-01T23:14:03.890Z,11.97
2022-09-01T23:16:31.431Z,15.17
2022-09-01T23:18:58.261Z,17.83
2022-09-01T23:21:29.086Z,13.17
2022-09-01T23:23:58.562Z,12.93
2022-09-01T23:26:26.897Z,13.87
2022-09-01T23:28:54.066Z,16.73
2022-09-01T23:31:24.760Z,13.53
2022-09-01T23:33:52.081Z,13.53
2022-09-01T23:36:21.743Z,15.43
2022-09-01T23:38:48.978Z,15.10
2022-09-01T23:41:23.191Z,11.63
2022-09-01T23:43:51.410Z,12.73
2022-09-01T23:46:29.640Z,16.90
2022-09-01T23:48:56.334Z,10.60
2022-09-01T23:51:24.673Z,12.47
2022-09-01T23:53:51.995Z,15.97
2022-09-01T23:56:21.965Z,14.67
2022-09-01T23:58:49.091Z,14.20
